ZTL Weather Bulletin
Prepared:7/28/2016 7:56 PM by: RW valid for 9 hours
FOR ATC PLANNING PURPOSES
Scattered showers and thunderstorms over all but far SE ZTL will continue to move northeast at 20-30kts and gradually diminish to isolated showers by 03-04z. Outside convection, expect mostly MVFR conditions over far NW ZTL and VFR conditions over the rest of ZTL into the early morning hours when MVFR and patchy IFR conditions will develop over most of AL/TN/VA, N GA and the mountain valleys. Surface winds will be mostly southwest to west at 5-15kts with 18-25kt gusts until 02-04z, and variable and gusty near convection. Flight Hazards outside of convection: LGT-MOD turbulence below 080 over GA/SC/NC. Altimeters will remain below 29.92ins over most of SC/NC/VA and E TN overnight. Ceilings below 050 are expected near convection and in ZTL areas 1/3/6/7 through the period and in Areas 4/5 after 08z.

Restricted Area Convection: R2102...Til 03z. R3002...00-03z. R3004...None.
FTUS31 KATL 282339
KATL 282335Z 2900/3006 24012G18KT P6SM FEW080 SCT120
      TEMPO 2900/2903 VRB15G30KT 5SM SHRA BKN030
     FM290600 26006KT P6SM SCT250
     FM291200 26006KT P6SM BKN015
     FM291600 28010KT P6SM SCT040 PROB30 2919/2923 6SM SHRA BKN030
     FM300100 26010KT P6SM SCT050
Remark: ISOLATED TS POSSIBLE NW/W/SW Til 03z and S/SE/E/NE/N 00-04z.
FTUS80 KCLT 282321 RRC
KCLT 282320Z 2900/2924 24013G22KT P6SM FEW060 SCT250
     FM290400 24005KT P6SM SCT250
     FM292000 28006G13KT P6SM SCT070 PROB30 2921/2924 4SM -SHRA
      OVC040

Remark: NONE.
12-18 Hour Forecast Map
Weather Map
Convective Gate Forecast
Convective Gate Forecast
Icing Gate Forecast Icing Gate Forecast

ATL products

TDA
TRACON BRF

Convection Gate FCST

Vertical Wind Profile (RAP)

Icing Gate FCST
Atlanta Observations
 

CLT products

TDA

TRACON BRF

Convection Gate FCST

Vertical Wind Profile (RAP)

Icing Gate FCST
Charlotte Observations



USA.gov is the U.S. government's official web portal to all federal, state and local government web resources and services.